Time;durP1;ratioP1;P1;durP2;ratioP2;P2;SDS_P1;SDS_P2;PMS_P1;PMS_P2;Temp;Humidity;BMP_temperature;BMP_pressure;BME280_temperature;BME280_humidity;BME280_pressure;Samples;Min_cycle;Max_cycle;Signal;HPM_P1;HPM_P2
2022/07/29 00:01:27;;;;;;;1.07;1.03;;;25.70;62.20;26.40;96432.00;;;;5112281;28;20281;-88
2022/07/29 00:03:54;;;;;;;1.43;1.10;;;25.60;62.30;26.40;96428.00;;;;5113817;28;20233;-88
2022/07/29 00:06:22;;;;;;;1.80;1.20;;;25.60;62.40;26.30;96420.00;;;;5112312;28;20193;-88
2022/07/29 00:08:50;;;;;;;1.30;1.20;;;25.60;62.50;26.30;96422.00;;;;5110632;28;20224;-87
2022/07/29 00:11:17;;;;;;;1.30;1.20;;;25.60;63.40;26.30;96427.00;;;;5101473;28;20271;-87
2022/07/29 00:13:45;;;;;;;1.23;1.13;;;25.60;62.60;26.30;96421.00;;;;5112229;28;20214;-87
2022/07/29 00:16:12;;;;;;;1.00;1.00;;;25.50;62.60;26.20;96434.00;;;;5108386;28;20222;-88
2022/07/29 00:18:39;;;;;;;1.20;1.20;;;25.50;62.80;26.20;96434.00;;;;5106726;28;20251;-88
2022/07/29 00:21:06;;;;;;;1.10;1.00;;;25.50;62.80;26.20;96431.00;;;;5109603;28;20222;-88
2022/07/29 00:23:33;;;;;;;2.70;1.23;;;25.50;63.10;26.20;96426.00;;;;5110726;28;20289;-87
2022/07/29 00:26:02;;;;;;;1.07;1.03;;;25.40;63.00;26.20;96431.00;;;;5109987;28;20566;-88
2022/07/29 00:28:29;;;;;;;1.10;1.00;;;25.40;63.00;26.20;96426.00;;;;5110822;28;20611;-87
2022/07/29 00:30:56;;;;;;;1.00;1.00;;;25.40;62.80;26.10;96423.00;;;;5109780;28;20240;-88
2022/07/29 00:33:23;;;;;;;1.40;1.30;;;25.40;62.80;26.10;96412.00;;;;5109536;28;20193;-87
2022/07/29 00:35:49;;;;;;;1.00;1.00;;;25.40;62.70;26.10;96421.00;;;;5104340;28;20428;-88
2022/07/29 00:38:20;;;;;;;1.20;1.10;;;25.30;62.80;26.10;96413.00;;;;5123106;22;20237;-86
2022/07/29 00:40:54;;;;;;;1.53;1.30;;;25.30;62.90;26.10;96410.00;;;;5045555;28;20755;-87
2022/07/29 00:43:25;;;;;;;1.10;1.03;;;25.30;62.90;26.10;96406.00;;;;5045277;28;20284;-87
2022/07/29 00:45:52;;;;;;;1.00;1.00;;;25.30;62.80;26.00;96401.00;;;;5043626;28;20197;-87
2022/07/29 00:48:23;;;;;;;1.43;1.33;;;25.30;62.80;26.00;96402.00;;;;5054757;28;20232;-87
2022/07/29 00:50:51;;;;;;;1.00;0.90;;;25.20;62.80;26.00;96404.00;;;;5049503;28;20196;-86
2022/07/29 00:53:20;;;;;;;1.43;1.33;;;25.20;62.80;26.00;96395.00;;;;5049645;28;20208;-87
2022/07/29 00:55:48;;;;;;;1.00;1.00;;;25.20;62.90;26.00;96398.00;;;;5048788;28;20201;-87
2022/07/29 00:58:15;;;;;;;1.90;1.20;;;25.20;62.90;25.90;96396.00;;;;5036978;28;20284;-87
2022/07/29 01:00:44;;;;;;;1.20;1.00;;;25.20;62.90;25.90;96398.00;;;;5041594;28;20226;-87
2022/07/29 01:03:12;;;;;;;0.87;0.87;;;25.20;62.70;25.90;96402.00;;;;5050524;28;20604;-87
2022/07/29 01:05:41;;;;;;;1.30;1.10;;;25.10;62.70;25.90;96407.00;;;;5058621;28;20203;-87
2022/07/29 01:08:11;;;;;;;2.70;1.40;;;25.10;62.90;25.80;96408.00;;;;5054193;28;20279;-87
2022/07/29 01:10:40;;;;;;;1.30;1.03;;;25.10;63.00;25.80;96399.00;;;;5048894;28;20207;-86
2022/07/29 01:13:09;;;;;;;1.00;1.00;;;25.00;62.90;25.80;96393.00;;;;5046170;28;20196;-86
2022/07/29 01:15:56;;;;;;;1.00;1.00;;;25.00;62.90;25.70;96394.00;;;;5047250;28;20629;-86
2022/07/29 01:18:37;;;;;;;1.27;0.90;;;25.00;62.70;25.70;96393.00;;;;5032714;28;20275;-87
2022/07/29 01:21:44;;;;;;;1.67;1.00;;;25.00;62.80;25.70;96391.00;;;;5045793;28;20569;-86
2022/07/29 01:24:56;;;;;;;1.30;1.20;;;25.00;62.80;25.60;96381.00;;;;5036144;28;20301;-87
2022/07/29 01:27:53;;;;;;;1.10;1.10;;;25.00;63.50;25.60;96385.00;;;;5018688;28;20208;-84
2022/07/29 01:30:25;;;;;;;0.83;0.83;;;24.90;63.80;25.50;96384.00;;;;5050167;28;20298;-84
2022/07/29 01:33:02;;;;;;;1.23;1.20;;;24.80;63.90;25.50;96388.00;;;;5038416;28;20216;-84
2022/07/29 01:35:40;;;;;;;1.37;1.10;;;24.80;64.20;25.50;96387.00;;;;5052799;28;20474;-84
2022/07/29 01:38:13;;;;;;;1.20;1.10;;;24.80;64.40;25.40;96386.00;;;;5044121;28;20227;-84
2022/07/29 01:40:54;;;;;;;1.07;0.80;;;24.70;64.20;25.40;96393.00;;;;5051685;28;20215;-84
2022/07/29 01:43:30;;;;;;;1.00;1.00;;;24.70;64.30;25.40;96397.00;;;;5046952;28;20207;-84
2022/07/29 01:46:05;;;;;;;1.03;0.93;;;24.70;64.40;25.40;96392.00;;;;5047081;28;20204;-84
2022/07/29 01:48:42;;;;;;;0.87;0.87;;;24.70;64.20;25.30;96396.00;;;;5054818;28;20227;-84
2022/07/29 01:51:18;;;;;;;1.80;0.97;;;24.60;64.00;25.30;96391.00;;;;5052155;28;20211;-84
2022/07/29 01:53:57;;;;;;;1.20;1.00;;;24.60;64.00;25.30;96384.00;;;;5052741;28;20315;-85
2022/07/29 01:56:29;;;;;;;1.10;0.90;;;24.60;64.30;25.20;96369.00;;;;5054243;28;20578;-84
2022/07/29 01:58:58;;;;;;;0.77;0.77;;;24.60;64.40;25.20;96365.00;;;;5048016;28;21488;-84
2022/07/29 02:01:30;;;;;;;0.70;0.70;;;24.50;64.30;25.20;96363.00;;;;5033989;28;20271;-83
2022/07/29 02:04:00;;;;;;;0.80;0.80;;;24.50;64.20;25.20;96349.00;;;;5043851;28;20213;-84
2022/07/29 02:06:30;;;;;;;0.90;0.90;;;24.50;64.30;25.20;96358.00;;;;5058150;28;20603;-84
2022/07/29 02:09:00;;;;;;;1.13;1.00;;;24.40;64.30;25.10;96354.00;;;;5040195;28;20266;-84
2022/07/29 02:11:35;;;;;;;0.80;0.80;;;24.40;64.60;25.10;96346.00;;;;5051238;28;20252;-84
2022/07/29 02:14:06;;;;;;;0.97;0.90;;;24.40;64.70;25.00;96349.00;;;;5053792;28;20224;-84
2022/07/29 02:16:41;;;;;;;0.83;0.83;;;24.40;64.70;25.00;96341.00;;;;5045655;28;20222;-84
2022/07/29 02:19:11;;;;;;;1.10;1.00;;;24.30;64.80;25.00;96333.00;;;;5045059;28;20218;-84
2022/07/29 02:21:44;;;;;;;2.20;1.03;;;24.30;64.80;24.90;96340.00;;;;5053979;28;20258;-85
2022/07/29 02:24:14;;;;;;;1.63;1.00;;;24.30;65.10;24.90;96344.00;;;;5055713;28;20534;-85
2022/07/29 02:26:44;;;;;;;1.33;1.10;;;24.20;65.00;24.80;96331.00;;;;5060209;28;20196;-85
2022/07/29 02:29:15;;;;;;;1.87;0.90;;;24.20;65.10;24.80;96326.00;;;;5045377;28;20264;-85
2022/07/29 02:31:51;;;;;;;1.13;1.03;;;24.20;65.20;24.80;96330.00;;;;5059385;28;20205;-85
2022/07/29 02:34:20;;;;;;;0.93;0.90;;;24.10;65.20;24.70;96336.00;;;;5044721;28;20240;-85
2022/07/29 02:36:51;;;;;;;0.73;0.73;;;24.10;65.30;24.70;96335.00;;;;5056155;28;20561;-85
2022/07/29 02:39:20;;;;;;;1.33;0.83;;;24.00;65.30;24.70;96335.00;;;;5044818;28;20248;-85
2022/07/29 02:42:04;;;;;;;1.00;0.90;;;24.00;65.50;24.70;96341.00;;;;5047819;28;20280;-85
2022/07/29 02:44:38;;;;;;;1.00;0.80;;;24.00;65.50;24.70;96339.00;;;;5042964;28;20199;-86
2022/07/29 02:47:19;;;;;;;0.80;0.80;;;24.00;65.70;24.70;96338.00;;;;5056368;28;20197;-85
2022/07/29 02:50:00;;;;;;;0.70;0.70;;;24.00;65.90;24.70;96331.00;;;;5047203;28;20197;-85
2022/07/29 02:52:44;;;;;;;0.63;0.63;;;24.00;65.80;24.70;96331.00;;;;5054028;28;20574;-85
2022/07/29 02:55:25;;;;;;;0.70;0.67;;;24.00;65.60;24.70;96330.00;;;;5043098;28;20280;-86
2022/07/29 02:58:01;;;;;;;0.63;0.63;;;24.00;65.80;24.70;96327.00;;;;5039823;28;20212;-86
2022/07/29 03:00:32;;;;;;;0.83;0.83;;;24.00;66.00;24.60;96332.00;;;;5044651;28;20255;-86
2022/07/29 03:03:06;;;;;;;1.57;0.80;;;23.90;66.00;24.60;96327.00;;;;5054848;28;20620;-85
2022/07/29 03:05:34;;;;;;;1.03;0.93;;;23.90;66.00;24.60;96327.00;;;;5057312;28;20206;-85
2022/07/29 03:08:07;;;;;;;1.43;0.80;;;23.90;66.10;24.60;96331.00;;;;5056971;28;20235;-85
2022/07/29 03:10:40;;;;;;;0.73;0.73;;;23.90;66.20;24.60;96336.00;;;;5044679;28;20625;-85
2022/07/29 03:13:08;;;;;;;1.20;0.80;;;23.90;66.30;24.60;96330.00;;;;5046324;28;20342;-85
2022/07/29 03:15:39;;;;;;;0.87;0.80;;;23.80;66.40;24.60;96334.00;;;;5045450;28;20194;-85
2022/07/29 03:18:21;;;;;;;1.00;0.83;;;23.90;66.50;24.60;96339.00;;;;5043796;28;20256;-86
2022/07/29 03:20:51;;;;;;;0.70;0.70;;;23.80;66.50;24.60;96342.00;;;;5032572;28;20222;-86
2022/07/29 03:23:25;;;;;;;1.63;1.00;;;23.90;66.70;24.60;96343.00;;;;5050484;28;20440;-85
2022/07/29 03:25:54;;;;;;;1.00;1.00;;;23.80;66.80;24.50;96337.00;;;;5044747;28;20188;-86
2022/07/29 03:28:22;;;;;;;1.37;1.00;;;23.80;66.70;24.50;96344.00;;;;5036173;28;20283;-86
2022/07/29 03:30:50;;;;;;;0.70;0.70;;;23.80;66.70;24.50;96337.00;;;;5047606;28;20246;-85
2022/07/29 03:33:24;;;;;;;0.93;0.93;;;23.80;66.70;24.50;96348.00;;;;5049402;28;20193;-85
2022/07/29 03:35:51;;;;;;;0.90;0.90;;;23.80;66.70;24.50;96347.00;;;;5046152;28;20284;-85
2022/07/29 03:38:19;;;;;;;0.83;0.80;;;23.80;66.90;24.50;96343.00;;;;5052887;28;20588;-84
2022/07/29 03:40:53;;;;;;;1.90;1.00;;;23.70;67.00;24.40;96350.00;;;;5033039;28;20209;-84
2022/07/29 03:43:23;;;;;;;1.07;1.03;;;23.70;67.30;24.40;96338.00;;;;5035906;28;20429;-84
2022/07/29 03:45:55;;;;;;;1.10;1.10;;;23.70;67.40;24.40;96339.00;;;;5041631;28;20197;-84
2022/07/29 03:48:27;;;;;;;0.90;0.90;;;23.70;67.60;24.40;96333.00;;;;5046355;28;20622;-85
2022/07/29 03:50:54;;;;;;;0.90;0.80;;;23.60;67.60;24.30;96335.00;;;;5051231;28;20292;-85
2022/07/29 03:53:24;;;;;;;1.47;0.90;;;23.70;67.60;24.30;96340.00;;;;5053147;28;20205;-85
2022/07/29 03:56:00;;;;;;;0.93;0.93;;;23.70;67.70;24.30;96341.00;;;;5051816;28;20211;-85
2022/07/29 03:58:43;;;;;;;1.27;1.17;;;23.60;67.90;24.30;96344.00;;;;5044996;28;20222;-85
2022/07/29 04:01:12;;;;;;;1.23;0.93;;;23.60;67.90;24.20;96342.00;;;;5044254;28;20221;-85
2022/07/29 04:03:42;;;;;;;1.43;1.00;;;23.60;67.90;24.20;96340.00;;;;5050937;28;20283;-84
2022/07/29 04:06:09;;;;;;;1.43;1.00;;;23.60;68.00;24.20;96338.00;;;;5052656;28;20236;-84
2022/07/29 04:08:36;;;;;;;1.10;1.00;;;23.50;67.90;24.20;96341.00;;;;5052804;28;20263;-84
2022/07/29 04:11:05;;;;;;;1.03;1.03;;;23.50;67.90;24.20;96347.00;;;;5052749;28;20201;-83
2022/07/29 04:13:33;;;;;;;1.10;1.00;;;23.50;68.00;24.10;96340.00;;;;5053616;28;20209;-83
2022/07/29 04:16:00;;;;;;;1.43;1.00;;;23.50;68.10;24.10;96344.00;;;;5053475;28;20231;-83
2022/07/29 04:18:28;;;;;;;1.33;1.07;;;23.40;68.20;24.10;96344.00;;;;5052220;28;20213;-84
2022/07/29 04:20:58;;;;;;;1.50;1.07;;;23.40;68.30;24.00;96343.00;;;;5052918;28;20282;-83
2022/07/29 04:23:26;;;;;;;1.00;0.90;;;23.40;68.50;24.00;96343.00;;;;5053758;28;20192;-82
2022/07/29 04:25:53;;;;;;;2.10;1.20;;;23.30;68.50;23.90;96347.00;;;;5055103;28;20201;-83
2022/07/29 04:28:20;;;;;;;1.20;1.10;;;23.30;68.70;23.90;96347.00;;;;5054902;28;20231;-83
2022/07/29 04:30:50;;;;;;;1.30;1.20;;;23.20;68.90;23.90;96344.00;;;;5054690;28;20295;-83
2022/07/29 04:33:18;;;;;;;1.20;1.10;;;23.20;69.00;23.90;96348.00;;;;5055147;28;20197;-82
2022/07/29 04:35:45;;;;;;;2.70;1.13;;;23.20;69.30;23.80;96352.00;;;;5054999;28;20672;-82
2022/07/29 04:38:13;;;;;;;1.10;1.00;;;23.10;69.40;23.80;96346.00;;;;5053799;28;20212;-83
2022/07/29 04:40:41;;;;;;;1.20;1.10;;;23.10;70.30;23.80;96350.00;;;;5053161;28;20246;-83
2022/07/29 04:43:08;;;;;;;1.13;1.03;;;23.10;69.60;23.80;96353.00;;;;5054953;28;20196;-82
2022/07/29 04:45:35;;;;;;;1.90;1.10;;;23.10;69.80;23.80;96353.00;;;;5049562;28;20254;-82
2022/07/29 04:48:02;;;;;;;1.03;1.03;;;23.10;70.00;23.80;96349.00;;;;5035892;28;20267;-83
2022/07/29 04:50:29;;;;;;;1.50;1.40;;;23.00;70.10;23.80;96351.00;;;;5032047;28;20254;-84
2022/07/29 04:52:57;;;;;;;1.27;1.17;;;23.00;70.10;23.80;96340.00;;;;5031949;28;20201;-83
2022/07/29 04:55:26;;;;;;;1.37;1.20;;;23.00;70.20;23.80;96344.00;;;;5032328;28;20616;-82
2022/07/29 04:57:53;;;;;;;1.27;1.17;;;23.00;70.30;23.80;96348.00;;;;5031780;28;20225;-84
2022/07/29 05:00:22;;;;;;;1.40;1.30;;;23.00;70.40;23.80;96352.00;;;;5050462;28;20196;-84
2022/07/29 05:02:50;;;;;;;1.97;1.43;;;23.00;70.50;23.80;96344.00;;;;5051168;28;20312;-84
2022/07/29 05:05:17;;;;;;;1.17;1.10;;;23.00;70.30;23.80;96351.00;;;;5051866;28;20200;-83
2022/07/29 05:07:46;;;;;;;1.37;1.27;;;23.00;70.20;23.80;96354.00;;;;5051716;28;20567;-83
2022/07/29 05:10:14;;;;;;;1.80;1.10;;;23.00;70.30;23.80;96362.00;;;;5052318;28;20231;-86
2022/07/29 05:12:45;;;;;;;1.13;1.10;;;23.00;70.50;23.80;96355.00;;;;5051182;28;20197;-84
2022/07/29 05:15:12;;;;;;;1.30;1.20;;;23.10;70.70;23.80;96357.00;;;;5051263;28;20234;-83
2022/07/29 05:17:45;;;;;;;1.07;0.97;;;23.10;70.60;23.80;96359.00;;;;5045140;28;20228;-84
2022/07/29 05:20:12;;;;;;;1.07;1.03;;;23.10;70.60;23.80;96370.00;;;;5034110;28;20189;-83
2022/07/29 05:22:40;;;;;;;1.73;1.20;;;23.10;70.70;23.80;96366.00;;;;5048914;28;20231;-84
2022/07/29 05:25:08;;;;;;;0.97;0.97;;;23.10;70.80;23.80;96367.00;;;;5055236;28;20201;-84
2022/07/29 05:27:38;;;;;;;1.30;1.20;;;23.10;70.90;23.80;96368.00;;;;5056286;28;20200;-84
2022/07/29 05:30:08;;;;;;;1.50;1.10;;;23.10;70.80;23.80;96362.00;;;;5048960;28;20198;-84
2022/07/29 05:32:36;;;;;;;0.90;0.90;;;23.10;70.80;23.90;96372.00;;;;5045476;28;20283;-83
2022/07/29 05:35:06;;;;;;;1.97;1.07;;;23.10;70.70;23.90;96380.00;;;;5055029;28;20224;-85
2022/07/29 05:37:34;;;;;;;1.30;1.27;;;23.10;70.70;23.90;96386.00;;;;5055070;28;20277;-83
2022/07/29 05:40:01;;;;;;;1.20;1.10;;;23.20;71.70;23.90;96378.00;;;;5054840;28;20208;-84
2022/07/29 05:42:29;;;;;;;1.17;1.07;;;23.20;71.00;24.00;96381.00;;;;5054710;28;20270;-83
2022/07/29 05:44:58;;;;;;;1.10;1.10;;;23.20;71.00;24.00;96388.00;;;;5054053;28;20203;-84
2022/07/29 05:47:26;;;;;;;1.30;1.20;;;23.20;71.00;24.00;96383.00;;;;5049980;28;20204;-83
2022/07/29 05:49:56;;;;;;;1.30;1.20;;;23.20;70.90;24.00;96389.00;;;;5039878;28;20204;-83
2022/07/29 05:52:26;;;;;;;2.80;1.20;;;23.30;70.90;24.00;96391.00;;;;5037793;28;20196;-83
2022/07/29 05:54:53;;;;;;;1.00;0.90;;;23.30;71.00;24.10;96386.00;;;;5044679;28;20244;-83
2022/07/29 05:57:23;;;;;;;1.27;1.03;;;23.30;70.80;24.10;96385.00;;;;5035052;28;20193;-83
2022/07/29 05:59:51;;;;;;;0.80;0.80;;;23.30;70.50;24.10;96388.00;;;;5048094;28;20201;-83
2022/07/29 06:02:19;;;;;;;0.90;0.90;;;23.30;70.50;24.10;96390.00;;;;5054622;28;20514;-84
2022/07/29 06:04:50;;;;;;;0.93;0.93;;;23.30;70.50;24.10;96390.00;;;;5038904;28;20244;-83
2022/07/29 06:07:17;;;;;;;1.30;1.20;;;23.30;70.60;24.10;96398.00;;;;5034774;28;20191;-83
2022/07/29 06:09:44;;;;;;;0.90;0.90;;;23.40;70.50;24.10;96397.00;;;;5049613;28;20286;-83
2022/07/29 06:12:11;;;;;;;1.97;1.10;;;23.40;70.60;24.20;96400.00;;;;5054598;28;20242;-83
2022/07/29 06:14:42;;;;;;;0.97;0.90;;;23.40;70.60;24.20;96400.00;;;;5054178;28;20717;-84
2022/07/29 06:17:12;;;;;;;1.20;1.10;;;23.40;70.40;24.20;96408.00;;;;5055353;28;20258;-84
2022/07/29 06:19:39;;;;;;;1.43;1.33;;;23.50;70.30;24.20;96403.00;;;;5053631;28;20225;-84
2022/07/29 06:22:08;;;;;;;0.97;0.90;;;23.50;70.20;24.30;96408.00;;;;5054232;28;20213;-83
2022/07/29 06:24:41;;;;;;;1.00;1.00;;;23.50;70.20;24.30;96413.00;;;;5054376;28;20197;-83
2022/07/29 06:27:10;;;;;;;1.03;1.00;;;23.50;70.00;24.30;96400.00;;;;5053121;28;20189;-83
2022/07/29 06:29:43;;;;;;;1.07;0.83;;;23.60;70.10;24.40;96406.00;;;;5043986;28;20276;-83
2022/07/29 06:32:10;;;;;;;0.60;0.60;;;23.70;69.80;24.40;96404.00;;;;5050821;28;20255;-83
2022/07/29 06:34:39;;;;;;;0.87;0.80;;;23.60;69.80;24.40;96410.00;;;;5053766;28;20225;-84
2022/07/29 06:37:10;;;;;;;1.20;0.87;;;23.70;69.60;24.50;96402.00;;;;5054346;28;20198;-84
2022/07/29 06:39:38;;;;;;;0.90;0.90;;;23.70;69.50;24.50;96398.00;;;;5096621;22;20235;-84
2022/07/29 06:42:06;;;;;;;1.23;1.00;;;23.80;69.50;24.50;96397.00;;;;5093305;28;20654;-84
2022/07/29 06:44:34;;;;;;;1.40;0.73;;;23.80;69.60;24.60;96397.00;;;;5092450;28;20329;-84
2022/07/29 06:47:01;;;;;;;0.60;0.60;;;23.90;69.50;24.70;96399.00;;;;5093438;28;20192;-84
2022/07/29 06:49:29;;;;;;;1.07;0.93;;;23.90;69.70;24.70;96399.00;;;;5089821;28;20215;-84
2022/07/29 06:51:56;;;;;;;0.60;0.60;;;24.00;69.90;24.80;96399.00;;;;5093125;28;20191;-86
2022/07/29 06:54:24;;;;;;;0.90;0.70;;;24.00;69.70;24.80;96399.00;;;;5100681;22;20598;-84
2022/07/29 06:56:52;;;;;;;0.70;0.70;;;24.10;69.60;24.90;96395.00;;;;5071741;28;20229;-83
2022/07/29 06:59:19;;;;;;;0.80;0.80;;;24.10;69.30;25.00;96398.00;;;;5063267;28;20220;-83
2022/07/29 07:01:46;;;;;;;2.77;0.87;;;24.20;69.30;25.00;96398.00;;;;5063271;28;20271;-84
2022/07/29 07:04:14;;;;;;;1.27;1.10;;;24.20;69.00;25.00;96400.00;;;;5059919;28;20188;-83
2022/07/29 07:06:41;;;;;;;0.90;0.90;;;24.30;68.90;25.10;96406.00;;;;5053865;28;20213;-83
2022/07/29 07:09:08;;;;;;;1.17;0.90;;;24.30;69.00;25.20;96402.00;;;;5053866;28;20214;-84
2022/07/29 07:11:36;;;;;;;1.10;0.80;;;24.40;68.80;25.30;96407.00;;;;5062715;28;20243;-83
2022/07/29 07:14:04;;;;;;;0.90;0.90;;;24.40;68.70;25.40;96414.00;;;;5068451;28;22311;-84
2022/07/29 07:16:32;;;;;;;0.73;0.70;;;24.50;68.70;25.50;96408.00;;;;5069424;28;20208;-84
2022/07/29 07:18:59;;;;;;;1.03;0.93;;;24.60;68.90;25.60;96418.00;;;;5064864;28;20211;-84
2022/07/29 07:21:26;;;;;;;2.03;1.10;;;24.70;69.10;25.80;96418.00;;;;5065632;28;20290;-83
2022/07/29 07:23:53;;;;;;;0.70;0.70;;;24.80;69.00;26.00;96411.00;;;;5067053;28;20247;-84
2022/07/29 07:26:20;;;;;;;0.60;0.60;;;25.00;69.10;26.10;96414.00;;;;5063458;28;20283;-84
2022/07/29 07:28:49;;;;;;;0.77;0.77;;;25.10;68.50;26.30;96414.00;;;;5064674;28;20265;-84
2022/07/29 07:31:16;;;;;;;0.60;0.60;;;25.20;68.40;26.50;96416.00;;;;5060848;28;20220;-85
2022/07/29 07:33:43;;;;;;;0.73;0.73;;;25.40;68.90;26.60;96414.00;;;;5058721;28;20756;-84
2022/07/29 07:36:10;;;;;;;0.70;0.70;;;25.50;67.90;26.80;96416.00;;;;5065411;28;20192;-84
2022/07/29 07:38:37;;;;;;;0.77;0.77;;;25.70;68.10;27.00;96416.00;;;;5055547;28;20279;-83
2022/07/29 07:41:05;;;;;;;0.53;0.53;;;25.80;68.10;27.20;96411.00;;;;5059347;28;20737;-84
2022/07/29 07:43:32;;;;;;;2.70;0.60;;;26.00;67.90;27.30;96415.00;;;;5062566;28;20676;-84
2022/07/29 07:46:00;;;;;;;0.70;0.70;;;26.20;67.80;27.50;96410.00;;;;5064493;28;20279;-84
2022/07/29 07:48:27;;;;;;;1.37;0.50;;;26.30;67.30;27.70;96413.00;;;;5058254;28;20197;-84
2022/07/29 07:50:55;;;;;;;0.80;0.80;;;26.50;66.50;27.90;96412.00;;;;5067167;28;20231;-84
2022/07/29 07:53:22;;;;;;;0.60;0.60;;;26.60;66.30;28.00;96408.00;;;;5074549;28;20612;-85
2022/07/29 07:55:49;;;;;;;0.67;0.67;;;26.80;65.40;28.20;96410.00;;;;5077791;28;20226;-84
2022/07/29 07:58:17;;;;;;;0.60;0.60;;;26.90;65.10;28.30;96408.00;;;;5065842;28;20619;-84
2022/07/29 08:00:44;;;;;;;0.80;0.80;;;27.10;64.70;28.50;96398.00;;;;5071375;28;20208;-83
2022/07/29 08:03:13;;;;;;;1.00;0.90;;;27.20;63.60;28.60;96404.00;;;;5067941;28;20220;-84
2022/07/29 08:05:40;;;;;;;0.93;0.60;;;27.40;63.50;28.80;96404.00;;;;5066886;28;20214;-83
2022/07/29 08:08:08;;;;;;;0.63;0.63;;;27.50;63.70;28.90;96410.00;;;;5055667;28;20247;-84
2022/07/29 08:10:55;;;;;;;0.77;0.77;;;27.70;63.10;29.10;96404.00;;;;5061814;28;20243;-84
2022/07/29 08:13:24;;;;;;;1.65;0.57;;;27.80;62.80;29.20;96408.00;;;;5066652;28;20195;-84
2022/07/29 08:15:57;;;;;;;0.90;0.65;;;28.00;62.70;29.40;96411.00;;;;5062951;28;20201;-84
2022/07/29 08:18:26;;;;;;;0.45;0.45;;;28.10;61.60;29.50;96408.00;;;;5060905;28;20208;-83
2022/07/29 08:20:53;;;;;;;1.65;0.70;;;28.20;60.50;29.60;96417.00;;;;5060148;28;20262;-84
2022/07/29 08:23:22;;;;;;;0.73;0.73;;;28.40;60.50;29.80;96410.00;;;;5060696;28;20251;-84
2022/07/29 08:25:50;;;;;;;0.50;0.50;;;28.50;59.10;29.90;96413.00;;;;5054680;28;20220;-84
2022/07/29 08:28:17;;;;;;;0.52;0.52;;;28.60;59.20;30.00;96419.00;;;;5068346;28;20200;-83
2022/07/29 08:30:46;;;;;;;0.30;0.30;;;28.70;58.70;30.10;96410.00;;;;5066331;28;20299;-84
2022/07/29 08:33:14;;;;;;;0.60;0.60;;;28.80;58.50;30.20;96414.00;;;;5065444;28;20228;-84
2022/07/29 08:35:42;;;;;;;0.60;0.60;;;29.00;58.40;30.30;96414.00;;;;5064503;28;20274;-83
2022/07/29 08:38:09;;;;;;;1.20;0.60;;;29.10;58.50;30.50;96410.00;;;;5060307;28;20232;-84
2022/07/29 08:40:36;;;;;;;1.60;0.50;;;29.20;58.80;30.60;96422.00;;;;5064376;28;20239;-84
2022/07/29 08:43:08;;;;;;;0.50;0.50;;;29.30;57.70;30.70;96422.00;;;;5065628;28;20220;-84
2022/07/29 08:45:45;;;;;;;0.63;0.60;;;29.40;57.30;30.80;96428.00;;;;5064785;28;20200;-83
2022/07/29 08:48:13;;;;;;;0.80;0.60;;;29.50;56.70;31.00;96429.00;;;;5063705;28;20216;-83
2022/07/29 08:50:44;;;;;;;1.02;0.80;;;29.60;56.90;31.10;96434.00;;;;5063061;28;20212;-84
2022/07/29 08:53:14;;;;;;;0.55;0.55;;;29.80;55.90;31.30;96429.00;;;;5061195;28;20196;-83
2022/07/29 08:55:44;;;;;;;0.50;0.50;;;29.90;56.30;31.40;96426.00;;;;5062852;28;20279;-82
2022/07/29 08:58:12;;;;;;;1.17;0.50;;;30.00;56.40;31.50;96428.00;;;;5064551;28;20671;-83
2022/07/29 09:00:47;;;;;;;0.40;0.40;;;30.10;56.80;31.70;96432.00;;;;5059809;28;20212;-83
2022/07/29 09:03:19;;;;;;;0.60;0.60;;;30.30;56.20;31.80;96429.00;;;;5064052;28;20281;-83
2022/07/29 09:05:49;;;;;;;1.98;0.70;;;30.40;55.80;32.00;96435.00;;;;5063646;28;20200;-83
2022/07/29 09:08:18;;;;;;;0.60;0.60;;;30.50;56.20;32.10;96436.00;;;;5063109;28;20280;-83
2022/07/29 09:10:46;;;;;;;0.68;0.60;;;30.60;56.10;32.30;96432.00;;;;5052248;28;20633;-84
2022/07/29 09:13:13;;;;;;;0.68;0.60;;;30.70;55.90;32.40;96421.00;;;;5066715;28;20275;-83
2022/07/29 09:15:40;;;;;;;0.50;0.50;;;30.80;55.30;32.60;96432.00;;;;5058120;28;20232;-83
2022/07/29 09:18:07;;;;;;;1.40;0.68;;;31.00;54.90;32.70;96429.00;;;;5058213;28;20637;-83
2022/07/29 09:23:17;;;;;;;0.45;0.45;;;31.20;54.50;33.00;96421.00;;;;5063240;28;20296;-83
2022/07/29 09:25:44;;;;;;;0.68;0.65;;;31.30;54.20;33.10;96421.00;;;;5067646;28;20645;-83
2022/07/29 09:28:14;;;;;;;0.60;0.60;;;31.40;54.00;33.20;96421.00;;;;5063853;28;20199;-83
2022/07/29 09:30:52;;;;;;;0.80;0.80;;;31.50;53.50;33.30;96430.00;;;;5063748;28;20685;-83
2022/07/29 09:33:21;;;;;;;0.50;0.50;;;31.60;52.70;33.40;96434.00;;;;5056238;28;20286;-85
2022/07/29 09:36:03;;;;;;;0.60;0.60;;;31.80;53.00;33.60;96430.00;;;;5061023;28;20284;-84
2022/07/29 09:38:32;;;;;;;0.45;0.45;;;31.90;51.70;33.70;96430.00;;;;5062930;28;20283;-83
2022/07/29 09:41:00;;;;;;;0.60;0.60;;;32.00;52.70;33.70;96424.00;;;;5064487;28;20252;-83
2022/07/29 09:43:28;;;;;;;1.08;0.70;;;32.10;52.50;33.70;96423.00;;;;5054707;28;20761;-84
2022/07/29 09:45:55;;;;;;;0.90;0.70;;;32.10;51.70;33.80;96419.00;;;;5059872;28;20196;-83
2022/07/29 09:48:25;;;;;;;0.70;0.68;;;32.20;52.60;33.90;96413.00;;;;5062298;28;20224;-84
2022/07/29 09:50:53;;;;;;;0.50;0.47;;;32.30;51.70;34.00;96422.00;;;;5051899;28;20216;-84
2022/07/29 09:53:39;;;;;;;1.10;0.60;;;32.40;51.70;34.00;96412.00;;;;5056185;28;20201;-83
2022/07/29 09:56:07;;;;;;;0.65;0.65;;;32.50;50.40;34.00;96412.00;;;;5052706;28;20288;-84
2022/07/29 09:58:34;;;;;;;0.63;0.60;;;32.50;51.00;34.10;96422.00;;;;5056759;28;20285;-83
2022/07/29 10:01:02;;;;;;;0.60;0.60;;;32.60;50.90;34.00;96413.00;;;;5056393;28;20279;-83
2022/07/29 10:03:30;;;;;;;0.90;0.90;;;32.50;50.50;34.00;96412.00;;;;5058222;28;20247;-83
2022/07/29 10:06:09;;;;;;;1.55;0.75;;;32.60;50.20;34.00;96410.00;;;;5067535;28;20474;-83
2022/07/29 10:08:38;;;;;;;0.73;0.73;;;32.60;49.50;34.00;96404.00;;;;5074002;28;20653;-83
2022/07/29 10:11:15;;;;;;;0.50;0.50;;;32.60;50.40;34.00;96405.00;;;;5064896;28;20223;-82
2022/07/29 10:13:46;;;;;;;0.98;0.90;;;32.60;49.10;34.00;96415.00;;;;5068301;28;20242;-83
2022/07/29 10:16:15;;;;;;;0.50;0.50;;;32.60;49.60;33.90;96413.00;;;;5075055;28;20573;-84
2022/07/29 10:18:44;;;;;;;0.52;0.52;;;32.60;49.10;33.90;96427.00;;;;5065736;28;20630;-84
2022/07/29 10:21:11;;;;;;;0.52;0.52;;;32.60;49.70;33.80;96418.00;;;;5065801;28;20192;-83
2022/07/29 10:23:41;;;;;;;0.50;0.50;;;32.60;49.60;33.90;96418.00;;;;5060556;28;20215;-84
2022/07/29 10:26:11;;;;;;;1.17;0.80;;;32.60;49.60;33.90;96426.00;;;;5067864;28;20223;-84
2022/07/29 10:28:38;;;;;;;0.95;0.73;;;32.60;50.50;34.00;96416.00;;;;5076140;28;20245;-83
2022/07/29 10:31:14;;;;;;;0.60;0.60;;;32.70;49.80;34.00;96414.00;;;;5076040;28;20317;-84
2022/07/29 10:34:01;;;;;;;0.60;0.60;;;32.80;49.50;34.10;96411.00;;;;5073516;28;20196;-83
2022/07/29 10:36:48;;;;;;;0.82;0.82;;;32.80;48.70;34.20;96416.00;;;;5079958;28;20205;-84
2022/07/29 10:39:36;;;;;;;0.63;0.63;;;32.90;49.30;34.20;96421.00;;;;5067241;28;20708;-84
2022/07/29 10:42:16;;;;;;;5.38;1.00;;;33.00;49.40;34.30;96419.00;;;;5075445;28;20227;-84
2022/07/29 10:44:45;;;;;;;0.82;0.82;;;33.10;50.00;34.40;96412.00;;;;5073294;28;20215;-83
2022/07/29 10:47:23;;;;;;;0.70;0.70;;;33.20;49.00;34.50;96419.00;;;;5082313;28;20204;-83
2022/07/29 10:49:59;;;;;;;0.90;0.90;;;33.30;48.20;34.50;96424.00;;;;5077070;28;20257;-83
2022/07/29 10:52:57;;;;;;;0.77;0.77;;;33.40;49.20;34.50;96423.00;;;;5076576;28;20291;-83
2022/07/29 10:55:42;;;;;;;2.38;0.70;;;33.40;48.60;34.40;96414.00;;;;5070229;28;20276;-83
2022/07/29 10:58:14;;;;;;;1.05;0.63;;;33.40;47.90;34.30;96413.00;;;;5077491;28;20192;-83
2022/07/29 11:00:42;;;;;;;0.70;0.70;;;33.30;48.40;34.30;96425.00;;;;5071464;28;20294;-82
2022/07/29 11:03:09;;;;;;;1.30;1.20;;;33.30;49.10;34.20;96419.00;;;;5064218;28;20252;-83
2022/07/29 11:05:57;;;;;;;0.80;0.80;;;33.20;48.90;34.10;96415.00;;;;5074239;28;20232;-83
2022/07/29 11:08:25;;;;;;;0.80;0.80;;;33.20;48.10;34.00;96412.00;;;;5068911;28;20274;-83
2022/07/29 11:11:24;;;;;;;2.28;0.98;;;33.10;49.40;34.00;96404.00;;;;5056646;28;20193;-83
2022/07/29 11:13:54;;;;;;;0.93;0.93;;;33.00;49.00;33.90;96401.00;;;;5053867;28;20271;-83